Main page
METAR-TAF:

METAR-TAF

Airports :

Cranfield, England

Cranfield Airport

latitude: 52-04N, longitude: 000-37W, elevation: 111 m

Current weather observation

The report was made 29 minutes ago, at 08:50 UTC
Wind 16 kt from the South/Southwest
Temperature 12°C
Humidity 94%
Pressure 1020 hPa
Visibility 10 km or more
Few clouds at a height of 1200 ft

METAR: EGTC 290850Z 21016KT 9999 FEW012 12/11 Q1020

Time: 10:19 (09:19 UTC)

Forecast

The report was made 1 hour and 21 minutes ago, at 07:58 UTC
Forecast valid from 29 at 09 UTC to 29 at 18 UTC
Wind 12 kt from the Southwest
Visibility 10 km or more
Few clouds at a height of 1600 ft
Scattered clouds at a height of 2500 ft
Probability 30% :
Temporary
from 29 at 09 UTC to 29 at 12 UTC
Visibility: 9000 m
Broken clouds at a height of 1400 ft

TAF: EGTC 290758Z 2909/2918 23012KT 9999 FEW016 SCT025 PROB30 TEMPO 2909/2912 9000 BKN014

Weather observations and forecasts of more than 4000 airports (METAR and TAF reports).

The available stations are represented by yellow and red dots on the map.

Hover mouse over dot to see the name of the station.

Then click to see weather observations and forecasts.

To change the map : click on the green buttons with a black cross to zoom in, on the green button with a dash to zoom out, or on the green arrows for adjacent maps.


METAR-TAF: